sensor_id;sensor_type;location;lat;lon;timestamp;P1;durP1;ratioP1;P2;durP2;ratioP2
26696;SDS011;14312;52.614;13.496;2023-02-28T00:01:44;1.57;;;1.37;;
26696;SDS011;14312;52.614;13.496;2023-02-28T00:04:30;1.40;;;1.30;;
26696;SDS011;14312;52.614;13.496;2023-02-28T00:07:16;1.93;;;1.53;;
26696;SDS011;14312;52.614;13.496;2023-02-28T00:10:03;1.63;;;1.30;;
26696;SDS011;14312;52.614;13.496;2023-02-28T00:12:52;1.80;;;1.50;;
26696;SDS011;14312;52.614;13.496;2023-02-28T00:15:39;2.50;;;1.77;;
26696;SDS011;14312;52.614;13.496;2023-02-28T00:18:25;1.60;;;1.40;;
26696;SDS011;14312;52.614;13.496;2023-02-28T00:21:11;1.77;;;1.30;;
26696;SDS011;14312;52.614;13.496;2023-02-28T00:23:57;1.93;;;1.40;;
26696;SDS011;14312;52.614;13.496;2023-02-28T00:26:43;1.60;;;1.40;;
26696;SDS011;14312;52.614;13.496;2023-02-28T00:29:29;2.17;;;1.63;;
26696;SDS011;14312;52.614;13.496;2023-02-28T00:32:15;1.63;;;1.40;;
26696;SDS011;14312;52.614;13.496;2023-02-28T00:35:01;2.23;;;1.40;;
26696;SDS011;14312;52.614;13.496;2023-02-28T00:37:48;2.00;;;1.70;;
26696;SDS011;14312;52.614;13.496;2023-02-28T00:40:35;2.17;;;1.50;;
26696;SDS011;14312;52.614;13.496;2023-02-28T00:43:21;1.70;;;1.40;;
26696;SDS011;14312;52.614;13.496;2023-02-28T00:46:07;1.77;;;1.40;;
26696;SDS011;14312;52.614;13.496;2023-02-28T00:48:53;2.27;;;1.40;;
26696;SDS011;14312;52.614;13.496;2023-02-28T00:51:40;1.97;;;1.60;;
26696;SDS011;14312;52.614;13.496;2023-02-28T00:54:26;2.30;;;1.60;;
26696;SDS011;14312;52.614;13.496;2023-02-28T00:57:12;1.43;;;1.27;;
26696;SDS011;14312;52.614;13.496;2023-02-28T00:59:58;2.07;;;1.57;;
26696;SDS011;14312;52.614;13.496;2023-02-28T01:02:43;2.67;;;1.80;;
26696;SDS011;14312;52.614;13.496;2023-02-28T01:05:29;2.53;;;1.77;;
26696;SDS011;14312;52.614;13.496;2023-02-28T01:08:15;1.83;;;1.50;;
26696;SDS011;14312;52.614;13.496;2023-02-28T01:11:11;2.17;;;1.40;;
26696;SDS011;14312;52.614;13.496;2023-02-28T01:13:58;2.00;;;1.50;;
26696;SDS011;14312;52.614;13.496;2023-02-28T01:16:44;1.80;;;1.40;;
26696;SDS011;14312;52.614;13.496;2023-02-28T01:19:30;1.70;;;1.40;;
26696;SDS011;14312;52.614;13.496;2023-02-28T01:22:16;1.60;;;1.30;;
26696;SDS011;14312;52.614;13.496;2023-02-28T01:25:02;1.57;;;1.30;;
26696;SDS011;14312;52.614;13.496;2023-02-28T01:27:48;1.97;;;1.57;;
26696;SDS011;14312;52.614;13.496;2023-02-28T01:30:34;1.90;;;1.37;;
26696;SDS011;14312;52.614;13.496;2023-02-28T01:33:20;2.00;;;1.43;;
26696;SDS011;14312;52.614;13.496;2023-02-28T01:36:39;1.33;;;1.23;;
26696;SDS011;14312;52.614;13.496;2023-02-28T01:39:18;1.50;;;1.13;;
26696;SDS011;14312;52.614;13.496;2023-02-28T01:42:04;1.67;;;1.50;;
26696;SDS011;14312;52.614;13.496;2023-02-28T01:44:55;1.43;;;1.20;;
26696;SDS011;14312;52.614;13.496;2023-02-28T01:47:47;1.73;;;1.50;;
26696;SDS011;14312;52.614;13.496;2023-02-28T01:50:37;1.70;;;1.43;;
26696;SDS011;14312;52.614;13.496;2023-02-28T01:53:29;1.90;;;1.50;;
26696;SDS011;14312;52.614;13.496;2023-02-28T01:56:21;1.63;;;1.37;;
26696;SDS011;14312;52.614;13.496;2023-02-28T01:59:17;2.07;;;1.50;;
26696;SDS011;14312;52.614;13.496;2023-02-28T02:02:09;2.07;;;1.77;;
26696;SDS011;14312;52.614;13.496;2023-02-28T02:04:56;2.57;;;1.60;;
26696;SDS011;14312;52.614;13.496;2023-02-28T02:07:48;1.60;;;1.40;;
26696;SDS011;14312;52.614;13.496;2023-02-28T02:10:44;1.80;;;1.30;;
26696;SDS011;14312;52.614;13.496;2023-02-28T02:25:53;2.47;;;1.50;;
26696;SDS011;14312;52.614;13.496;2023-02-28T02:28:57;1.87;;;1.47;;
26696;SDS011;14312;52.614;13.496;2023-02-28T02:31:50;1.57;;;1.47;;
26696;SDS011;14312;52.614;13.496;2023-02-28T02:40:37;2.73;;;1.67;;
26696;SDS011;14312;52.614;13.496;2023-02-28T02:43:30;1.60;;;1.50;;
26696;SDS011;14312;52.614;13.496;2023-02-28T02:46:24;1.60;;;1.37;;
26696;SDS011;14312;52.614;13.496;2023-02-28T02:49:24;2.40;;;1.50;;
26696;SDS011;14312;52.614;13.496;2023-02-28T02:52:14;1.53;;;1.40;;
26696;SDS011;14312;52.614;13.496;2023-02-28T02:55:04;2.30;;;1.50;;
26696;SDS011;14312;52.614;13.496;2023-02-28T02:58:02;1.70;;;1.43;;
26696;SDS011;14312;52.614;13.496;2023-02-28T03:00:52;2.00;;;1.63;;
26696;SDS011;14312;52.614;13.496;2023-02-28T03:03:41;1.50;;;1.30;;
26696;SDS011;14312;52.614;13.496;2023-02-28T03:06:28;2.67;;;1.70;;
26696;SDS011;14312;52.614;13.496;2023-02-28T03:09:14;2.13;;;1.60;;
26696;SDS011;14312;52.614;13.496;2023-02-28T03:12:00;2.20;;;1.50;;
26696;SDS011;14312;52.614;13.496;2023-02-28T03:17:56;2.43;;;1.30;;
26696;SDS011;14312;52.614;13.496;2023-02-28T03:24:11;2.00;;;1.80;;
26696;SDS011;14312;52.614;13.496;2023-02-28T03:27:10;1.83;;;1.50;;
26696;SDS011;14312;52.614;13.496;2023-02-28T03:30:03;2.30;;;1.80;;
26696;SDS011;14312;52.614;13.496;2023-02-28T03:33:06;1.93;;;1.63;;
26696;SDS011;14312;52.614;13.496;2023-02-28T03:36:02;1.63;;;1.43;;
26696;SDS011;14312;52.614;13.496;2023-02-28T03:38:56;1.80;;;1.47;;
26696;SDS011;14312;52.614;13.496;2023-02-28T03:41:50;2.13;;;1.80;;
26696;SDS011;14312;52.614;13.496;2023-02-28T03:44:45;2.30;;;1.50;;
26696;SDS011;14312;52.614;13.496;2023-02-28T03:47:41;1.77;;;1.53;;
26696;SDS011;14312;52.614;13.496;2023-02-28T03:50:43;1.70;;;1.50;;
26696;SDS011;14312;52.614;13.496;2023-02-28T03:53:33;1.93;;;1.73;;
26696;SDS011;14312;52.614;13.496;2023-02-28T03:56:27;1.90;;;1.50;;
26696;SDS011;14312;52.614;13.496;2023-02-28T03:59:28;2.50;;;1.50;;
26696;SDS011;14312;52.614;13.496;2023-02-28T04:02:18;2.03;;;1.50;;
26696;SDS011;14312;52.614;13.496;2023-02-28T04:05:04;2.13;;;1.63;;
26696;SDS011;14312;52.614;13.496;2023-02-28T04:07:51;2.13;;;1.80;;
26696;SDS011;14312;52.614;13.496;2023-02-28T04:10:37;2.47;;;1.40;;
26696;SDS011;14312;52.614;13.496;2023-02-28T04:13:23;3.57;;;2.00;;
26696;SDS011;14312;52.614;13.496;2023-02-28T04:16:09;3.27;;;2.00;;
26696;SDS011;14312;52.614;13.496;2023-02-28T04:18:57;3.03;;;1.60;;
26696;SDS011;14312;52.614;13.496;2023-02-28T04:21:48;2.23;;;1.57;;
26696;SDS011;14312;52.614;13.496;2023-02-28T04:24:35;1.90;;;1.70;;
26696;SDS011;14312;52.614;13.496;2023-02-28T04:27:21;2.57;;;1.77;;
26696;SDS011;14312;52.614;13.496;2023-02-28T04:30:08;2.20;;;1.80;;
26696;SDS011;14312;52.614;13.496;2023-02-28T04:32:54;2.60;;;1.57;;
26696;SDS011;14312;52.614;13.496;2023-02-28T04:35:40;2.67;;;1.93;;
26696;SDS011;14312;52.614;13.496;2023-02-28T04:38:26;4.13;;;1.77;;
26696;SDS011;14312;52.614;13.496;2023-02-28T04:41:12;3.33;;;2.00;;
26696;SDS011;14312;52.614;13.496;2023-02-28T04:43:59;2.87;;;2.00;;
26696;SDS011;14312;52.614;13.496;2023-02-28T04:46:45;3.50;;;2.17;;
26696;SDS011;14312;52.614;13.496;2023-02-28T04:49:31;3.87;;;2.20;;
26696;SDS011;14312;52.614;13.496;2023-02-28T04:52:16;2.70;;;2.07;;
26696;SDS011;14312;52.614;13.496;2023-02-28T04:55:03;2.30;;;1.90;;
26696;SDS011;14312;52.614;13.496;2023-02-28T04:57:49;2.20;;;1.93;;
26696;SDS011;14312;52.614;13.496;2023-02-28T05:00:35;4.03;;;2.00;;
26696;SDS011;14312;52.614;13.496;2023-02-28T05:03:21;2.83;;;2.00;;
26696;SDS011;14312;52.614;13.496;2023-02-28T05:06:08;2.73;;;2.07;;
26696;SDS011;14312;52.614;13.496;2023-02-28T05:08:56;3.67;;;1.97;;
26696;SDS011;14312;52.614;13.496;2023-02-28T05:11:42;2.87;;;2.00;;
26696;SDS011;14312;52.614;13.496;2023-02-28T05:14:28;4.17;;;2.27;;
26696;SDS011;14312;52.614;13.496;2023-02-28T05:17:14;2.10;;;1.73;;
26696;SDS011;14312;52.614;13.496;2023-02-28T05:20:00;2.37;;;1.83;;
26696;SDS011;14312;52.614;13.496;2023-02-28T05:22:46;2.80;;;1.90;;
26696;SDS011;14312;52.614;13.496;2023-02-28T05:25:32;3.50;;;2.43;;
26696;SDS011;14312;52.614;13.496;2023-02-28T05:28:18;2.83;;;1.90;;
26696;SDS011;14312;52.614;13.496;2023-02-28T05:31:04;2.77;;;2.07;;
26696;SDS011;14312;52.614;13.496;2023-02-28T05:33:50;4.47;;;2.10;;
26696;SDS011;14312;52.614;13.496;2023-02-28T05:36:37;4.07;;;1.93;;
26696;SDS011;14312;52.614;13.496;2023-02-28T05:39:23;3.03;;;2.00;;
26696;SDS011;14312;52.614;13.496;2023-02-28T05:42:09;2.57;;;2.10;;
26696;SDS011;14312;52.614;13.496;2023-02-28T05:44:55;2.43;;;2.10;;
26696;SDS011;14312;52.614;13.496;2023-02-28T05:47:41;2.33;;;1.90;;
26696;SDS011;14312;52.614;13.496;2023-02-28T05:50:26;2.77;;;2.23;;
26696;SDS011;14312;52.614;13.496;2023-02-28T05:53:12;3.50;;;2.33;;
26696;SDS011;14312;52.614;13.496;2023-02-28T05:55:58;3.00;;;2.30;;
26696;SDS011;14312;52.614;13.496;2023-02-28T05:58:45;3.13;;;2.00;;
26696;SDS011;14312;52.614;13.496;2023-02-28T06:01:36;3.93;;;2.20;;
26696;SDS011;14312;52.614;13.496;2023-02-28T06:04:23;3.33;;;2.10;;
26696;SDS011;14312;52.614;13.496;2023-02-28T06:07:09;4.17;;;2.37;;
26696;SDS011;14312;52.614;13.496;2023-02-28T06:09:55;3.37;;;2.63;;
26696;SDS011;14312;52.614;13.496;2023-02-28T06:12:41;3.10;;;2.47;;
26696;SDS011;14312;52.614;13.496;2023-02-28T06:15:27;3.80;;;2.33;;
26696;SDS011;14312;52.614;13.496;2023-02-28T06:18:14;3.00;;;2.40;;
26696;SDS011;14312;52.614;13.496;2023-02-28T06:21:00;3.00;;;2.20;;
26696;SDS011;14312;52.614;13.496;2023-02-28T06:23:46;3.07;;;2.30;;
26696;SDS011;14312;52.614;13.496;2023-02-28T06:26:32;3.20;;;2.40;;
26696;SDS011;14312;52.614;13.496;2023-02-28T06:29:18;3.77;;;2.30;;
26696;SDS011;14312;52.614;13.496;2023-02-28T06:32:04;2.77;;;2.20;;
26696;SDS011;14312;52.614;13.496;2023-02-28T06:34:50;3.17;;;2.20;;
26696;SDS011;14312;52.614;13.496;2023-02-28T06:37:36;3.63;;;2.43;;
26696;SDS011;14312;52.614;13.496;2023-02-28T06:40:22;3.60;;;2.43;;
26696;SDS011;14312;52.614;13.496;2023-02-28T06:43:08;3.83;;;2.70;;
26696;SDS011;14312;52.614;13.496;2023-02-28T06:45:54;3.97;;;2.70;;
26696;SDS011;14312;52.614;13.496;2023-02-28T06:48:44;4.47;;;2.70;;
26696;SDS011;14312;52.614;13.496;2023-02-28T06:51:31;3.70;;;2.80;;
26696;SDS011;14312;52.614;13.496;2023-02-28T06:54:17;3.87;;;2.97;;
26696;SDS011;14312;52.614;13.496;2023-02-28T06:57:03;5.00;;;3.33;;
26696;SDS011;14312;52.614;13.496;2023-02-28T06:59:49;6.17;;;3.43;;
26696;SDS011;14312;52.614;13.496;2023-02-28T07:02:35;3.47;;;3.17;;
26696;SDS011;14312;52.614;13.496;2023-02-28T07:05:23;5.10;;;3.57;;
26696;SDS011;14312;52.614;13.496;2023-02-28T07:08:09;3.73;;;2.97;;
26696;SDS011;14312;52.614;13.496;2023-02-28T07:10:55;4.30;;;2.63;;
26696;SDS011;14312;52.614;13.496;2023-02-28T07:13:41;3.77;;;3.00;;
26696;SDS011;14312;52.614;13.496;2023-02-28T07:16:27;4.20;;;2.90;;
26696;SDS011;14312;52.614;13.496;2023-02-28T07:19:13;4.37;;;3.17;;
26696;SDS011;14312;52.614;13.496;2023-02-28T07:21:59;3.97;;;2.97;;
26696;SDS011;14312;52.614;13.496;2023-02-28T07:24:46;3.77;;;3.17;;
26696;SDS011;14312;52.614;13.496;2023-02-28T07:27:32;6.23;;;3.87;;
26696;SDS011;14312;52.614;13.496;2023-02-28T07:30:19;4.83;;;3.20;;
26696;SDS011;14312;52.614;13.496;2023-02-28T07:33:05;6.00;;;3.63;;
26696;SDS011;14312;52.614;13.496;2023-02-28T07:35:51;5.80;;;3.50;;
26696;SDS011;14312;52.614;13.496;2023-02-28T07:38:37;4.87;;;3.67;;
26696;SDS011;14312;52.614;13.496;2023-02-28T07:41:23;5.60;;;3.33;;
26696;SDS011;14312;52.614;13.496;2023-02-28T07:44:13;5.13;;;3.70;;
26696;SDS011;14312;52.614;13.496;2023-02-28T07:46:59;6.17;;;3.03;;
26696;SDS011;14312;52.614;13.496;2023-02-28T07:49:45;4.77;;;3.20;;
26696;SDS011;14312;52.614;13.496;2023-02-28T07:52:31;5.43;;;3.03;;
26696;SDS011;14312;52.614;13.496;2023-02-28T07:55:17;4.07;;;3.17;;
26696;SDS011;14312;52.614;13.496;2023-02-28T07:58:03;5.10;;;3.20;;
26696;SDS011;14312;52.614;13.496;2023-02-28T08:00:49;3.90;;;3.20;;
26696;SDS011;14312;52.614;13.496;2023-02-28T08:03:36;4.03;;;3.17;;
26696;SDS011;14312;52.614;13.496;2023-02-28T08:06:24;4.57;;;3.30;;
26696;SDS011;14312;52.614;13.496;2023-02-28T08:09:11;4.07;;;2.97;;
26696;SDS011;14312;52.614;13.496;2023-02-28T08:11:57;4.53;;;3.33;;
26696;SDS011;14312;52.614;13.496;2023-02-28T08:14:44;3.72;;;3.15;;
26696;SDS011;14312;52.614;13.496;2023-02-28T08:17:30;3.60;;;2.83;;
26696;SDS011;14312;52.614;13.496;2023-02-28T08:20:16;4.37;;;3.00;;
26696;SDS011;14312;52.614;13.496;2023-02-28T08:23:01;4.32;;;3.30;;
26696;SDS011;14312;52.614;13.496;2023-02-28T08:25:54;4.00;;;3.05;;
26696;SDS011;14312;52.614;13.496;2023-02-28T08:28:41;5.20;;;3.40;;
26696;SDS011;14312;52.614;13.496;2023-02-28T08:31:27;3.17;;;2.88;;
26696;SDS011;14312;52.614;13.496;2023-02-28T08:34:13;2.78;;;2.47;;
26696;SDS011;14312;52.614;13.496;2023-02-28T08:37:02;2.95;;;2.55;;
26696;SDS011;14312;52.614;13.496;2023-02-28T08:39:48;3.65;;;2.63;;
26696;SDS011;14312;52.614;13.496;2023-02-28T08:42:34;2.47;;;2.20;;
26696;SDS011;14312;52.614;13.496;2023-02-28T08:45:20;3.45;;;2.47;;
26696;SDS011;14312;52.614;13.496;2023-02-28T08:48:06;3.15;;;2.40;;
26696;SDS011;14312;52.614;13.496;2023-02-28T08:50:58;2.72;;;2.33;;
26696;SDS011;14312;52.614;13.496;2023-02-28T08:53:46;2.22;;;1.83;;
26696;SDS011;14312;52.614;13.496;2023-02-28T08:56:34;2.40;;;1.80;;
26696;SDS011;14312;52.614;13.496;2023-02-28T08:59:21;2.30;;;1.60;;
26696;SDS011;14312;52.614;13.496;2023-02-28T09:02:08;2.38;;;1.70;;
26696;SDS011;14312;52.614;13.496;2023-02-28T09:04:57;1.60;;;1.50;;
26696;SDS011;14312;52.614;13.496;2023-02-28T09:07:43;1.88;;;1.65;;
26696;SDS011;14312;52.614;13.496;2023-02-28T09:10:29;2.38;;;1.67;;
26696;SDS011;14312;52.614;13.496;2023-02-28T09:13:15;2.03;;;1.83;;
26696;SDS011;14312;52.614;13.496;2023-02-28T09:16:02;1.67;;;1.50;;
26696;SDS011;14312;52.614;13.496;2023-02-28T09:18:50;1.90;;;1.70;;
26696;SDS011;14312;52.614;13.496;2023-02-28T09:21:36;1.50;;;1.40;;
26696;SDS011;14312;52.614;13.496;2023-02-28T09:24:22;1.77;;;1.42;;
26696;SDS011;14312;52.614;13.496;2023-02-28T09:27:08;1.58;;;1.30;;
26696;SDS011;14312;52.614;13.496;2023-02-28T09:29:54;1.50;;;1.10;;
26696;SDS011;14312;52.614;13.496;2023-02-28T09:32:40;1.55;;;1.30;;
26696;SDS011;14312;52.614;13.496;2023-02-28T09:35:26;1.25;;;1.10;;
26696;SDS011;14312;52.614;13.496;2023-02-28T09:38:12;3.75;;;1.73;;
26696;SDS011;14312;52.614;13.496;2023-02-28T09:41:00;2.22;;;1.80;;
26696;SDS011;14312;52.614;13.496;2023-02-28T09:43:58;1.73;;;1.58;;
26696;SDS011;14312;52.614;13.496;2023-02-28T09:46:47;1.67;;;1.27;;
26696;SDS011;14312;52.614;13.496;2023-02-28T09:49:42;1.48;;;1.30;;
26696;SDS011;14312;52.614;13.496;2023-02-28T09:52:32;1.40;;;1.30;;
26696;SDS011;14312;52.614;13.496;2023-02-28T09:58:23;1.30;;;1.20;;
26696;SDS011;14312;52.614;13.496;2023-02-28T10:10:48;1.38;;;1.27;;
26696;SDS011;14312;52.614;13.496;2023-02-28T10:13:49;1.42;;;1.33;;
26696;SDS011;14312;52.614;13.496;2023-02-28T10:16:54;1.73;;;1.35;;
26696;SDS011;14312;52.614;13.496;2023-02-28T10:20:02;1.15;;;1.05;;
26696;SDS011;14312;52.614;13.496;2023-02-28T10:22:59;1.60;;;1.13;;
26696;SDS011;14312;52.614;13.496;2023-02-28T10:26:14;1.20;;;1.10;;
26696;SDS011;14312;52.614;13.496;2023-02-28T10:29:01;1.35;;;0.90;;
26696;SDS011;14312;52.614;13.496;2023-02-28T10:31:48;1.10;;;1.00;;
26696;SDS011;14312;52.614;13.496;2023-02-28T10:34:34;1.80;;;1.10;;
26696;SDS011;14312;52.614;13.496;2023-02-28T10:37:20;1.40;;;1.20;;
26696;SDS011;14312;52.614;13.496;2023-02-28T10:40:25;1.40;;;1.23;;
26696;SDS011;14312;52.614;13.496;2023-02-28T10:43:23;1.17;;;1.05;;
26696;SDS011;14312;52.614;13.496;2023-02-28T10:49:03;1.63;;;1.10;;
26696;SDS011;14312;52.614;13.496;2023-02-28T10:51:58;1.55;;;1.02;;
26696;SDS011;14312;52.614;13.496;2023-02-28T10:54:46;1.23;;;1.13;;
26696;SDS011;14312;52.614;13.496;2023-02-28T10:57:32;1.17;;;1.08;;
26696;SDS011;14312;52.614;13.496;2023-02-28T11:00:24;1.50;;;1.20;;
26696;SDS011;14312;52.614;13.496;2023-02-28T11:06:19;2.47;;;1.45;;
26696;SDS011;14312;52.614;13.496;2023-02-28T11:09:19;1.50;;;1.35;;
26696;SDS011;14312;52.614;13.496;2023-02-28T11:20:59;1.67;;;1.40;;
26696;SDS011;14312;52.614;13.496;2023-02-28T11:23:48;2.83;;;1.38;;
26696;SDS011;14312;52.614;13.496;2023-02-28T11:26:38;1.25;;;1.15;;
26696;SDS011;14312;52.614;13.496;2023-02-28T11:29:30;1.17;;;1.08;;
26696;SDS011;14312;52.614;13.496;2023-02-28T11:32:21;1.20;;;1.10;;
26696;SDS011;14312;52.614;13.496;2023-02-28T11:37:54;1.92;;;1.20;;
26696;SDS011;14312;52.614;13.496;2023-02-28T11:40:43;1.58;;;1.40;;
26696;SDS011;14312;52.614;13.496;2023-02-28T11:58:48;1.85;;;1.40;;
26696;SDS011;14312;52.614;13.496;2023-02-28T12:05:21;1.60;;;1.33;;
26696;SDS011;14312;52.614;13.496;2023-02-28T12:14:46;1.40;;;1.25;;
26696;SDS011;14312;52.614;13.496;2023-02-28T12:17:58;1.60;;;1.50;;
26696;SDS011;14312;52.614;13.496;2023-02-28T12:27:13;1.50;;;1.40;;
26696;SDS011;14312;52.614;13.496;2023-02-28T12:33:06;1.60;;;1.50;;
26696;SDS011;14312;52.614;13.496;2023-02-28T12:35:55;2.75;;;2.10;;
26696;SDS011;14312;52.614;13.496;2023-02-28T12:38:49;1.77;;;1.67;;
26696;SDS011;14312;52.614;13.496;2023-02-28T12:44:35;2.25;;;1.70;;
26696;SDS011;14312;52.614;13.496;2023-02-28T12:47:25;1.88;;;1.67;;
26696;SDS011;14312;52.614;13.496;2023-02-28T12:50:11;1.63;;;1.52;;
26696;SDS011;14312;52.614;13.496;2023-02-28T12:56:10;2.47;;;1.88;;
26696;SDS011;14312;52.614;13.496;2023-02-28T12:59:08;1.83;;;1.70;;
26696;SDS011;14312;52.614;13.496;2023-02-28T13:02:02;1.95;;;1.50;;
26696;SDS011;14312;52.614;13.496;2023-02-28T13:10:56;1.67;;;1.58;;
26696;SDS011;14312;52.614;13.496;2023-02-28T13:13:42;1.65;;;1.55;;
26696;SDS011;14312;52.614;13.496;2023-02-28T13:16:51;1.70;;;1.60;;
26696;SDS011;14312;52.614;13.496;2023-02-28T13:19:43;1.80;;;1.50;;
26696;SDS011;14312;52.614;13.496;2023-02-28T13:22:41;1.70;;;1.52;;
26696;SDS011;14312;52.614;13.496;2023-02-28T13:31:47;1.60;;;1.50;;
26696;SDS011;14312;52.614;13.496;2023-02-28T13:37:50;1.95;;;1.45;;
26696;SDS011;14312;52.614;13.496;2023-02-28T13:40:37;1.52;;;1.33;;
26696;SDS011;14312;52.614;13.496;2023-02-28T13:43:24;1.45;;;1.27;;
26696;SDS011;14312;52.614;13.496;2023-02-28T13:49:34;1.40;;;1.30;;
26696;SDS011;14312;52.614;13.496;2023-02-28T13:52:22;1.50;;;1.40;;
26696;SDS011;14312;52.614;13.496;2023-02-28T13:55:17;1.50;;;1.40;;
26696;SDS011;14312;52.614;13.496;2023-02-28T14:04:11;1.90;;;1.70;;
26696;SDS011;14312;52.614;13.496;2023-02-28T14:07:18;2.17;;;1.67;;
26696;SDS011;14312;52.614;13.496;2023-02-28T14:10:08;1.98;;;1.77;;
26696;SDS011;14312;52.614;13.496;2023-02-28T14:16:13;3.17;;;1.63;;
26696;SDS011;14312;52.614;13.496;2023-02-28T14:19:24;1.67;;;1.38;;
26696;SDS011;14312;52.614;13.496;2023-02-28T14:25:47;1.45;;;1.35;;
26696;SDS011;14312;52.614;13.496;2023-02-28T14:28:58;1.60;;;1.50;;
26696;SDS011;14312;52.614;13.496;2023-02-28T14:31:54;2.28;;;2.08;;
26696;SDS011;14312;52.614;13.496;2023-02-28T14:34:53;2.00;;;1.75;;
26696;SDS011;14312;52.614;13.496;2023-02-28T14:37:48;2.17;;;1.70;;
26696;SDS011;14312;52.614;13.496;2023-02-28T14:40:34;2.20;;;2.00;;
26696;SDS011;14312;52.614;13.496;2023-02-28T14:43:27;1.65;;;1.55;;
26696;SDS011;14312;52.614;13.496;2023-02-28T14:46:14;5.18;;;1.80;;
26696;SDS011;14312;52.614;13.496;2023-02-28T14:49:03;1.67;;;1.58;;
26696;SDS011;14312;52.614;13.496;2023-02-28T14:52:01;1.77;;;1.63;;
26696;SDS011;14312;52.614;13.496;2023-02-28T14:55:12;2.22;;;1.80;;
26696;SDS011;14312;52.614;13.496;2023-02-28T14:58:02;1.73;;;1.63;;
26696;SDS011;14312;52.614;13.496;2023-02-28T15:00:52;3.35;;;2.00;;
26696;SDS011;14312;52.614;13.496;2023-02-28T15:03:40;2.33;;;1.92;;
26696;SDS011;14312;52.614;13.496;2023-02-28T15:06:27;2.15;;;1.67;;
26696;SDS011;14312;52.614;13.496;2023-02-28T15:09:17;2.42;;;2.03;;
26696;SDS011;14312;52.614;13.496;2023-02-28T15:12:04;1.67;;;1.58;;
26696;SDS011;14312;52.614;13.496;2023-02-28T15:14:50;2.60;;;1.85;;
26696;SDS011;14312;52.614;13.496;2023-02-28T15:17:36;2.03;;;1.80;;
26696;SDS011;14312;52.614;13.496;2023-02-28T15:20:22;2.13;;;1.77;;
26696;SDS011;14312;52.614;13.496;2023-02-28T15:23:10;2.28;;;1.80;;
26696;SDS011;14312;52.614;13.496;2023-02-28T15:25:57;2.55;;;1.60;;
26696;SDS011;14312;52.614;13.496;2023-02-28T15:28:44;2.63;;;2.25;;
26696;SDS011;14312;52.614;13.496;2023-02-28T15:31:35;2.22;;;1.85;;
26696;SDS011;14312;52.614;13.496;2023-02-28T15:34:35;1.90;;;1.60;;
26696;SDS011;14312;52.614;13.496;2023-02-28T15:37:39;2.53;;;1.70;;
26696;SDS011;14312;52.614;13.496;2023-02-28T15:40:38;1.90;;;1.70;;
26696;SDS011;14312;52.614;13.496;2023-02-28T15:46:17;2.00;;;1.63;;
26696;SDS011;14312;52.614;13.496;2023-02-28T15:49:05;2.22;;;1.73;;
26696;SDS011;14312;52.614;13.496;2023-02-28T15:51:59;2.47;;;1.95;;
26696;SDS011;14312;52.614;13.496;2023-02-28T15:54:46;1.60;;;1.50;;
26696;SDS011;14312;52.614;13.496;2023-02-28T15:57:32;1.70;;;1.60;;
26696;SDS011;14312;52.614;13.496;2023-02-28T16:00:19;2.35;;;1.67;;
26696;SDS011;14312;52.614;13.496;2023-02-28T16:03:23;1.65;;;1.52;;
26696;SDS011;14312;52.614;13.496;2023-02-28T16:09:17;3.08;;;1.73;;
26696;SDS011;14312;52.614;13.496;2023-02-28T16:12:04;1.88;;;1.60;;
26696;SDS011;14312;52.614;13.496;2023-02-28T16:14:51;1.80;;;1.70;;
26696;SDS011;14312;52.614;13.496;2023-02-28T16:17:38;2.00;;;1.50;;
26696;SDS011;14312;52.614;13.496;2023-02-28T16:20:26;1.98;;;1.77;;
26696;SDS011;14312;52.614;13.496;2023-02-28T16:23:13;1.50;;;1.40;;
26696;SDS011;14312;52.614;13.496;2023-02-28T16:25:59;1.48;;;1.38;;
26696;SDS011;14312;52.614;13.496;2023-02-28T16:28:45;1.75;;;1.50;;
26696;SDS011;14312;52.614;13.496;2023-02-28T16:31:33;2.53;;;1.75;;
26696;SDS011;14312;52.614;13.496;2023-02-28T16:34:22;3.78;;;1.52;;
26696;SDS011;14312;52.614;13.496;2023-02-28T16:37:15;1.45;;;1.35;;
26696;SDS011;14312;52.614;13.496;2023-02-28T16:40:03;1.60;;;1.50;;
26696;SDS011;14312;52.614;13.496;2023-02-28T16:42:50;3.28;;;1.50;;
26696;SDS011;14312;52.614;13.496;2023-02-28T16:45:38;2.08;;;1.50;;
26696;SDS011;14312;52.614;13.496;2023-02-28T16:48:24;2.05;;;1.50;;
26696;SDS011;14312;52.614;13.496;2023-02-28T16:51:14;2.03;;;1.70;;
26696;SDS011;14312;52.614;13.496;2023-02-28T16:54:01;1.83;;;1.50;;
26696;SDS011;14312;52.614;13.496;2023-02-28T16:56:47;2.53;;;1.45;;
26696;SDS011;14312;52.614;13.496;2023-02-28T16:59:33;2.95;;;1.58;;
26696;SDS011;14312;52.614;13.496;2023-02-28T17:02:19;2.15;;;1.95;;
26696;SDS011;14312;52.614;13.496;2023-02-28T17:05:05;1.50;;;1.40;;
26696;SDS011;14312;52.614;13.496;2023-02-28T17:07:51;2.88;;;1.60;;
26696;SDS011;14312;52.614;13.496;2023-02-28T17:10:38;2.35;;;1.80;;
26696;SDS011;14312;52.614;13.496;2023-02-28T17:13:24;3.00;;;2.05;;
26696;SDS011;14312;52.614;13.496;2023-02-28T17:19:13;2.95;;;2.30;;
26696;SDS011;14312;52.614;13.496;2023-02-28T17:22:00;3.63;;;1.83;;
26696;SDS011;14312;52.614;13.496;2023-02-28T17:24:48;2.90;;;2.00;;
26696;SDS011;14312;52.614;13.496;2023-02-28T17:27:34;1.97;;;1.77;;
26696;SDS011;14312;52.614;13.496;2023-02-28T17:30:22;2.53;;;2.00;;
26696;SDS011;14312;52.614;13.496;2023-02-28T17:33:12;2.40;;;2.17;;
26696;SDS011;14312;52.614;13.496;2023-02-28T17:35:58;2.23;;;1.93;;
26696;SDS011;14312;52.614;13.496;2023-02-28T17:38:44;2.10;;;1.90;;
26696;SDS011;14312;52.614;13.496;2023-02-28T17:41:30;3.23;;;2.00;;
26696;SDS011;14312;52.614;13.496;2023-02-28T17:44:17;3.20;;;2.10;;
26696;SDS011;14312;52.614;13.496;2023-02-28T17:47:03;2.77;;;2.07;;
26696;SDS011;14312;52.614;13.496;2023-02-28T17:49:49;4.93;;;2.07;;
26696;SDS011;14312;52.614;13.496;2023-02-28T17:52:35;2.50;;;2.10;;
26696;SDS011;14312;52.614;13.496;2023-02-28T17:55:22;2.50;;;1.95;;
26696;SDS011;14312;52.614;13.496;2023-02-28T17:58:09;3.37;;;2.50;;
26696;SDS011;14312;52.614;13.496;2023-02-28T18:00:57;3.80;;;2.77;;
26696;SDS011;14312;52.614;13.496;2023-02-28T18:03:43;3.37;;;2.40;;
26696;SDS011;14312;52.614;13.496;2023-02-28T18:06:36;3.17;;;2.87;;
26696;SDS011;14312;52.614;13.496;2023-02-28T18:09:35;3.30;;;2.50;;
26696;SDS011;14312;52.614;13.496;2023-02-28T18:12:21;2.67;;;2.47;;
26696;SDS011;14312;52.614;13.496;2023-02-28T18:15:07;3.30;;;2.57;;
26696;SDS011;14312;52.614;13.496;2023-02-28T18:17:53;3.30;;;2.40;;
26696;SDS011;14312;52.614;13.496;2023-02-28T18:20:39;3.73;;;2.70;;
26696;SDS011;14312;52.614;13.496;2023-02-28T18:23:26;3.23;;;2.70;;
26696;SDS011;14312;52.614;13.496;2023-02-28T18:26:12;3.27;;;2.67;;
26696;SDS011;14312;52.614;13.496;2023-02-28T18:29:05;3.77;;;2.63;;
26696;SDS011;14312;52.614;13.496;2023-02-28T18:31:52;3.63;;;2.93;;
26696;SDS011;14312;52.614;13.496;2023-02-28T18:34:40;3.13;;;2.80;;
26696;SDS011;14312;52.614;13.496;2023-02-28T18:37:26;3.00;;;2.63;;
26696;SDS011;14312;52.614;13.496;2023-02-28T18:40:12;2.80;;;2.50;;
26696;SDS011;14312;52.614;13.496;2023-02-28T18:43:00;4.50;;;2.90;;
26696;SDS011;14312;52.614;13.496;2023-02-28T18:45:46;4.57;;;2.57;;
26696;SDS011;14312;52.614;13.496;2023-02-28T18:48:32;3.30;;;3.00;;
26696;SDS011;14312;52.614;13.496;2023-02-28T18:51:21;3.60;;;2.80;;
26696;SDS011;14312;52.614;13.496;2023-02-28T18:54:08;3.67;;;2.80;;
26696;SDS011;14312;52.614;13.496;2023-02-28T18:56:55;3.57;;;2.67;;
26696;SDS011;14312;52.614;13.496;2023-02-28T18:59:41;3.73;;;3.07;;